Deadhorse Airport
PASC : now visible

Airfield :











YOU CAN JOIN US ON...

 
LOGIN :

Register | Disclaimer

   EN    FR    IT 

 









Legend :    VFR   Marginal VFR   IFR   Intensive IFR   Very Intensive IFR
Visi :
Ceiling :
>= 8 km
>= 3000ft
5 to 8 km
1000 to 3000 ft
1500m to 5 km
500 to 1000 ft
800 to 1500m
200 to 500 ft
< 800m
< 200 ft
Symbols :   Thunderstorms  Fog  Heavy snow  Heavy precipitations  Wind > 20 kt






- Airport Elevation : 65 ft
- IATA code : SCC


PASC - Deadhorse

CURRENT METAR :
  • 011153Z 08025G32KT 10SM OVC005 M02/M03 A2987 RMK AO2 PK WND 07036/1103 SLP116 60000 T10171033 11006 21017 50003

EXPIRED METARs :
  • 011124Z 07021KT 10SM OVC004 M02/M03 A2987 RMK AO2 PK WND 07036/1103 T10171033
  • 011053Z 08022G36KT 10SM OVC006 M02/M03 A2986 RMK AO2 PK WND 07040/1035 SNB19E29 SLP114 P0000 T10171033
  • 010953Z 08029G38KT 10SM OVC007 M02/M03 A2986 RMK AO2 PK WND 08039/0916 SLP113 T10171033

TAF PASC
Valid from the 01 at 12:00 until the 02 at 12:00 UTC


011133Z 0112/0212 08022G36KT P6SM OVC006
TEMPO 0114/0118 1SM BR
PAZA FIR / North America



MET'MAP, your aeronautical weather chart ! - Copyright ORBIFLY December 2007 - Disclaimer

ORBIFLY MET'MAP TEAM :

Programming & Development : Alexandra Zaïnal
Concept & original design : Baudouin d'Aumeries
Assistance for programming : Marc-Olivier Méhu
Technical & hardware support : Manuel Goepfert

Contact : metmap@orbifly.com




SOURCES & CREDITS :

   NOAA       Earth
Advisory